Portada
METAR-TAF:

METAR-TAF

Aeroports :

Aeroport de Kangerlussuaq

Kangerlussuaq, Grenlàndia

latitud: 67-01N, longitud: 050-42W, altitud: 50 m

Observació

L'informe es va fer fa 24 minuts, a les 22:50 UTC
Vent 8 kt del Nord-Est
Temperatura -19°C
Humitat 77%
Pressió 997 hPa
Visibilitat 10 km o més

METAR: BGSF 282250Z AUTO 05008KT 9999NDV FEW120/// SCT170/// M19/M22 Q0997

Hora: 20:14 (23:14 UTC)

Pronòstic

L'informe es va fer fa 3 hores i 37 minuts, a les 19:37 UTC
Pronòstic vàlid del 28 a les 19 UTC al 29 a les 20 UTC
Vent 8 kt del Nord-Est
Visibilitat 10 km o més
Escasses núvols a una alçada de 6000 ft
Cel ennuvolat a una alçada de 12000 ft
Temporalment
l' 29 a les 04 UTC al 29 a les 12 UTC
Cel ennuvolat a una alçada de 4000 ft

TAF: BGSF 281937Z 2819/2920 05008KT 9999 FEW060 BKN120 TEMPO 2904/2912 3000-SN BKN040

Observacions i pronòstics meteorològics de més de 4000 aeroports (METAR i TAF).

Les estacions disponibles són els punts grocs i vermells al mapa.

Posi el ratolí al punt desitjat per veure el nom de l'estació.

Feu clic per veure les observacions i els pronòstics meteorològics.

Per canviar el mapa: feu clic els botons verds amb una creu de color negre per apropar; al botó verd amb un guió per allunyar la imatge; o en les fletxes verdes per a mapes adjacents.


METAR-TAF: